sensor_id;sensor_type;location;lat;lon;timestamp;temperature;humidity
13742;DHT22;8461;52.356;10.704;2022-09-21T00:00:26;6.30;99.90
13742;DHT22;8461;52.356;10.704;2022-09-21T00:02:55;6.30;99.90
13742;DHT22;8461;52.356;10.704;2022-09-21T00:05:22;6.30;99.90
13742;DHT22;8461;52.356;10.704;2022-09-21T00:07:47;6.10;99.90
13742;DHT22;8461;52.356;10.704;2022-09-21T00:10:13;6.20;99.90
13742;DHT22;8461;52.356;10.704;2022-09-21T00:12:39;6.20;99.90
13742;DHT22;8461;52.356;10.704;2022-09-21T00:15:06;6.20;99.90
13742;DHT22;8461;52.356;10.704;2022-09-21T00:17:32;6.10;99.90
13742;DHT22;8461;52.356;10.704;2022-09-21T00:19:58;6.00;99.90
13742;DHT22;8461;52.356;10.704;2022-09-21T00:22:25;6.10;99.90
13742;DHT22;8461;52.356;10.704;2022-09-21T00:24:51;6.10;99.90
13742;DHT22;8461;52.356;10.704;2022-09-21T00:27:16;6.00;99.90
13742;DHT22;8461;52.356;10.704;2022-09-21T00:29:42;6.00;99.90
13742;DHT22;8461;52.356;10.704;2022-09-21T00:32:07;6.00;99.90
13742;DHT22;8461;52.356;10.704;2022-09-21T00:34:33;6.10;99.90
13742;DHT22;8461;52.356;10.704;2022-09-21T00:36:58;6.10;99.90
13742;DHT22;8461;52.356;10.704;2022-09-21T00:39:24;6.10;99.90
13742;DHT22;8461;52.356;10.704;2022-09-21T00:41:49;6.10;99.90
13742;DHT22;8461;52.356;10.704;2022-09-21T00:44:31;6.10;99.90
13742;DHT22;8461;52.356;10.704;2022-09-21T00:47:05;6.10;99.90
13742;DHT22;8461;52.356;10.704;2022-09-21T00:49:32;6.00;99.90
13742;DHT22;8461;52.356;10.704;2022-09-21T00:51:59;6.10;99.90
13742;DHT22;8461;52.356;10.704;2022-09-21T00:54:30;6.10;99.90
13742;DHT22;8461;52.356;10.704;2022-09-21T00:56:58;6.20;99.90
13742;DHT22;8461;52.356;10.704;2022-09-21T00:59:26;6.20;99.90
13742;DHT22;8461;52.356;10.704;2022-09-21T01:01:52;6.20;99.90
13742;DHT22;8461;52.356;10.704;2022-09-21T01:04:19;6.10;99.90
13742;DHT22;8461;52.356;10.704;2022-09-21T01:06:45;6.10;99.90
13742;DHT22;8461;52.356;10.704;2022-09-21T01:09:12;6.10;99.90
13742;DHT22;8461;52.356;10.704;2022-09-21T01:12:14;6.10;99.90
13742;DHT22;8461;52.356;10.704;2022-09-21T01:15:13;6.00;99.90
13742;DHT22;8461;52.356;10.704;2022-09-21T01:23:53;5.90;99.90
13742;DHT22;8461;52.356;10.704;2022-09-21T01:34:37;5.60;99.90
13742;DHT22;8461;52.356;10.704;2022-09-21T01:37:12;5.60;99.90
13742;DHT22;8461;52.356;10.704;2022-09-21T01:39:41;5.60;99.90
13742;DHT22;8461;52.356;10.704;2022-09-21T01:42:09;5.70;99.90
13742;DHT22;8461;52.356;10.704;2022-09-21T01:44:38;5.80;99.90
13742;DHT22;8461;52.356;10.704;2022-09-21T01:47:07;5.80;99.90
13742;DHT22;8461;52.356;10.704;2022-09-21T01:49:38;5.70;99.90
13742;DHT22;8461;52.356;10.704;2022-09-21T01:52:32;5.80;99.90
13742;DHT22;8461;52.356;10.704;2022-09-21T01:55:22;5.70;99.90
13742;DHT22;8461;52.356;10.704;2022-09-21T01:58:04;5.70;99.90
13742;DHT22;8461;52.356;10.704;2022-09-21T02:00:31;5.70;99.90
13742;DHT22;8461;52.356;10.704;2022-09-21T02:05:36;5.90;99.90
13742;DHT22;8461;52.356;10.704;2022-09-21T02:08:04;5.90;99.90
13742;DHT22;8461;52.356;10.704;2022-09-21T02:10:41;5.90;99.90
13742;DHT22;8461;52.356;10.704;2022-09-21T02:13:07;5.90;99.90
13742;DHT22;8461;52.356;10.704;2022-09-21T02:21:33;5.80;99.90
13742;DHT22;8461;52.356;10.704;2022-09-21T02:24:28;6.00;99.90
13742;DHT22;8461;52.356;10.704;2022-09-21T02:29:47;6.10;99.90
13742;DHT22;8461;52.356;10.704;2022-09-21T02:32:48;6.20;99.90
13742;DHT22;8461;52.356;10.704;2022-09-21T02:35:35;6.10;99.90
13742;DHT22;8461;52.356;10.704;2022-09-21T02:41:27;6.20;99.90
13742;DHT22;8461;52.356;10.704;2022-09-21T02:46:54;6.20;99.90
13742;DHT22;8461;52.356;10.704;2022-09-21T02:49:25;6.20;99.90
13742;DHT22;8461;52.356;10.704;2022-09-21T02:51:57;6.10;99.90
13742;DHT22;8461;52.356;10.704;2022-09-21T02:54:26;6.20;99.90
13742;DHT22;8461;52.356;10.704;2022-09-21T02:56:54;6.20;99.90
13742;DHT22;8461;52.356;10.704;2022-09-21T02:59:21;6.20;99.90
13742;DHT22;8461;52.356;10.704;2022-09-21T03:01:51;6.30;99.90
13742;DHT22;8461;52.356;10.704;2022-09-21T03:04:16;6.30;99.90
13742;DHT22;8461;52.356;10.704;2022-09-21T03:06:42;6.20;99.90
13742;DHT22;8461;52.356;10.704;2022-09-21T03:09:08;6.00;99.90
13742;DHT22;8461;52.356;10.704;2022-09-21T03:11:34;6.10;99.90
13742;DHT22;8461;52.356;10.704;2022-09-21T03:14:01;6.20;99.90
13742;DHT22;8461;52.356;10.704;2022-09-21T03:16:29;6.20;99.90
13742;DHT22;8461;52.356;10.704;2022-09-21T03:18:55;6.10;99.90
13742;DHT22;8461;52.356;10.704;2022-09-21T03:21:21;6.10;99.90
13742;DHT22;8461;52.356;10.704;2022-09-21T03:23:46;6.10;99.90
13742;DHT22;8461;52.356;10.704;2022-09-21T03:26:12;6.10;99.90
13742;DHT22;8461;52.356;10.704;2022-09-21T03:28:37;5.90;99.90
13742;DHT22;8461;52.356;10.704;2022-09-21T03:31:03;5.90;99.90
13742;DHT22;8461;52.356;10.704;2022-09-21T03:33:30;5.90;99.90
13742;DHT22;8461;52.356;10.704;2022-09-21T03:35:56;6.00;99.90
13742;DHT22;8461;52.356;10.704;2022-09-21T03:38:22;5.90;99.90
13742;DHT22;8461;52.356;10.704;2022-09-21T03:40:49;5.90;99.90
13742;DHT22;8461;52.356;10.704;2022-09-21T03:43:15;5.90;99.90
13742;DHT22;8461;52.356;10.704;2022-09-21T03:45:41;5.90;99.90
13742;DHT22;8461;52.356;10.704;2022-09-21T03:48:08;5.90;99.90
13742;DHT22;8461;52.356;10.704;2022-09-21T03:50:34;5.90;99.90
13742;DHT22;8461;52.356;10.704;2022-09-21T03:53:00;5.90;99.90
13742;DHT22;8461;52.356;10.704;2022-09-21T03:55:26;5.90;99.90
13742;DHT22;8461;52.356;10.704;2022-09-21T03:57:52;5.90;99.90
13742;DHT22;8461;52.356;10.704;2022-09-21T04:00:18;5.90;99.90
13742;DHT22;8461;52.356;10.704;2022-09-21T04:02:44;5.90;99.90
13742;DHT22;8461;52.356;10.704;2022-09-21T04:05:11;5.90;99.90
13742;DHT22;8461;52.356;10.704;2022-09-21T04:07:40;5.90;99.90
13742;DHT22;8461;52.356;10.704;2022-09-21T04:10:09;6.00;99.90
13742;DHT22;8461;52.356;10.704;2022-09-21T04:12:39;5.90;99.90
13742;DHT22;8461;52.356;10.704;2022-09-21T04:15:08;5.70;99.90
13742;DHT22;8461;52.356;10.704;2022-09-21T04:17:34;5.60;99.90
13742;DHT22;8461;52.356;10.704;2022-09-21T04:20:00;5.60;99.90
13742;DHT22;8461;52.356;10.704;2022-09-21T04:22:25;5.70;99.90
13742;DHT22;8461;52.356;10.704;2022-09-21T04:24:51;5.70;99.90
13742;DHT22;8461;52.356;10.704;2022-09-21T04:27:17;5.70;99.90
13742;DHT22;8461;52.356;10.704;2022-09-21T04:29:43;5.80;99.90
13742;DHT22;8461;52.356;10.704;2022-09-21T04:32:09;5.80;99.90
13742;DHT22;8461;52.356;10.704;2022-09-21T04:34:35;5.70;99.90
13742;DHT22;8461;52.356;10.704;2022-09-21T04:37:06;5.60;99.90
13742;DHT22;8461;52.356;10.704;2022-09-21T04:39:33;5.70;99.90
13742;DHT22;8461;52.356;10.704;2022-09-21T04:41:59;5.80;99.90
13742;DHT22;8461;52.356;10.704;2022-09-21T04:44:24;5.90;99.90
13742;DHT22;8461;52.356;10.704;2022-09-21T04:46:50;5.90;99.90
13742;DHT22;8461;52.356;10.704;2022-09-21T04:49:16;5.90;99.90
13742;DHT22;8461;52.356;10.704;2022-09-21T04:51:41;5.90;99.90
13742;DHT22;8461;52.356;10.704;2022-09-21T04:54:07;5.90;99.90
13742;DHT22;8461;52.356;10.704;2022-09-21T04:56:33;5.90;99.90
13742;DHT22;8461;52.356;10.704;2022-09-21T04:58:58;6.00;99.90
13742;DHT22;8461;52.356;10.704;2022-09-21T05:01:24;6.00;99.90
13742;DHT22;8461;52.356;10.704;2022-09-21T05:03:49;5.90;99.90
13742;DHT22;8461;52.356;10.704;2022-09-21T05:06:15;5.90;99.90
13742;DHT22;8461;52.356;10.704;2022-09-21T05:08:40;5.90;99.90
13742;DHT22;8461;52.356;10.704;2022-09-21T05:11:25;5.90;99.90
13742;DHT22;8461;52.356;10.704;2022-09-21T05:13:51;5.90;99.90
13742;DHT22;8461;52.356;10.704;2022-09-21T05:16:17;5.90;99.90
13742;DHT22;8461;52.356;10.704;2022-09-21T05:18:44;5.90;99.90
13742;DHT22;8461;52.356;10.704;2022-09-21T05:21:13;5.80;99.90
13742;DHT22;8461;52.356;10.704;2022-09-21T05:23:39;5.90;99.90
13742;DHT22;8461;52.356;10.704;2022-09-21T05:26:05;5.90;99.90
13742;DHT22;8461;52.356;10.704;2022-09-21T05:28:31;5.80;99.90
13742;DHT22;8461;52.356;10.704;2022-09-21T05:33:56;5.90;99.90
13742;DHT22;8461;52.356;10.704;2022-09-21T05:39:08;6.00;99.90
13742;DHT22;8461;52.356;10.704;2022-09-21T05:41:34;5.90;99.90
13742;DHT22;8461;52.356;10.704;2022-09-21T05:44:00;6.00;99.90
13742;DHT22;8461;52.356;10.704;2022-09-21T05:49:01;5.90;99.90
13742;DHT22;8461;52.356;10.704;2022-09-21T05:51:42;5.90;99.90
13742;DHT22;8461;52.356;10.704;2022-09-21T05:54:12;6.00;99.90
13742;DHT22;8461;52.356;10.704;2022-09-21T05:59:57;6.10;99.90
13742;DHT22;8461;52.356;10.704;2022-09-21T06:05:11;6.10;99.90
13742;DHT22;8461;52.356;10.704;2022-09-21T06:07:37;6.30;99.90
13742;DHT22;8461;52.356;10.704;2022-09-21T06:10:03;6.30;99.90
13742;DHT22;8461;52.356;10.704;2022-09-21T06:12:29;6.30;99.90
13742;DHT22;8461;52.356;10.704;2022-09-21T06:14:54;6.30;99.90
13742;DHT22;8461;52.356;10.704;2022-09-21T06:17:21;6.40;99.90
13742;DHT22;8461;52.356;10.704;2022-09-21T06:19:46;6.40;99.90
13742;DHT22;8461;52.356;10.704;2022-09-21T06:22:12;6.40;99.90
13742;DHT22;8461;52.356;10.704;2022-09-21T06:24:37;6.40;99.90
13742;DHT22;8461;52.356;10.704;2022-09-21T06:27:03;6.50;99.90
13742;DHT22;8461;52.356;10.704;2022-09-21T06:29:28;6.60;99.90
13742;DHT22;8461;52.356;10.704;2022-09-21T06:31:53;6.70;99.90
13742;DHT22;8461;52.356;10.704;2022-09-21T06:34:19;6.80;99.90
13742;DHT22;8461;52.356;10.704;2022-09-21T06:36:45;6.70;99.90
13742;DHT22;8461;52.356;10.704;2022-09-21T06:39:10;6.80;99.90
13742;DHT22;8461;52.356;10.704;2022-09-21T06:41:36;6.90;99.90
13742;DHT22;8461;52.356;10.704;2022-09-21T06:44:02;7.00;99.90
13742;DHT22;8461;52.356;10.704;2022-09-21T06:46:27;7.10;99.90
13742;DHT22;8461;52.356;10.704;2022-09-21T06:48:53;7.20;99.90
13742;DHT22;8461;52.356;10.704;2022-09-21T06:51:19;7.30;99.90
13742;DHT22;8461;52.356;10.704;2022-09-21T06:53:46;7.30;99.90
13742;DHT22;8461;52.356;10.704;2022-09-21T06:56:12;7.40;99.90
13742;DHT22;8461;52.356;10.704;2022-09-21T06:58:38;7.50;99.90
13742;DHT22;8461;52.356;10.704;2022-09-21T07:01:12;7.50;99.90
13742;DHT22;8461;52.356;10.704;2022-09-21T07:03:39;7.70;99.90
13742;DHT22;8461;52.356;10.704;2022-09-21T07:06:06;7.70;99.90
13742;DHT22;8461;52.356;10.704;2022-09-21T07:08:32;7.80;99.90
13742;DHT22;8461;52.356;10.704;2022-09-21T07:10:58;7.90;99.90
13742;DHT22;8461;52.356;10.704;2022-09-21T07:13:25;8.00;99.90
13742;DHT22;8461;52.356;10.704;2022-09-21T07:15:50;8.10;99.90
13742;DHT22;8461;52.356;10.704;2022-09-21T07:18:16;8.20;99.90
13742;DHT22;8461;52.356;10.704;2022-09-21T07:20:41;8.30;99.90
13742;DHT22;8461;52.356;10.704;2022-09-21T07:23:17;8.40;99.90
13742;DHT22;8461;52.356;10.704;2022-09-21T07:25:45;8.50;99.90
13742;DHT22;8461;52.356;10.704;2022-09-21T07:28:12;8.60;99.90
13742;DHT22;8461;52.356;10.704;2022-09-21T07:30:40;8.60;99.90
13742;DHT22;8461;52.356;10.704;2022-09-21T07:33:06;8.80;99.90
13742;DHT22;8461;52.356;10.704;2022-09-21T07:35:32;8.80;99.90
13742;DHT22;8461;52.356;10.704;2022-09-21T07:38:02;8.80;99.90
13742;DHT22;8461;52.356;10.704;2022-09-21T07:40:28;8.90;99.90
13742;DHT22;8461;52.356;10.704;2022-09-21T07:42:58;9.00;99.90
13742;DHT22;8461;52.356;10.704;2022-09-21T07:45:24;9.00;99.90
13742;DHT22;8461;52.356;10.704;2022-09-21T07:47:50;9.10;99.90
13742;DHT22;8461;52.356;10.704;2022-09-21T07:50:19;9.20;99.90
13742;DHT22;8461;52.356;10.704;2022-09-21T07:52:46;9.30;99.90
13742;DHT22;8461;52.356;10.704;2022-09-21T07:55:12;9.40;99.90
13742;DHT22;8461;52.356;10.704;2022-09-21T07:57:37;9.50;99.90
13742;DHT22;8461;52.356;10.704;2022-09-21T08:00:22;9.50;99.90
13742;DHT22;8461;52.356;10.704;2022-09-21T08:02:48;9.70;99.90
13742;DHT22;8461;52.356;10.704;2022-09-21T08:05:13;9.60;99.90
13742;DHT22;8461;52.356;10.704;2022-09-21T08:07:39;9.60;99.90
13742;DHT22;8461;52.356;10.704;2022-09-21T08:10:05;9.70;99.90
13742;DHT22;8461;52.356;10.704;2022-09-21T08:12:31;9.80;99.90
13742;DHT22;8461;52.356;10.704;2022-09-21T08:14:56;9.70;99.90
13742;DHT22;8461;52.356;10.704;2022-09-21T08:17:22;9.80;99.90
13742;DHT22;8461;52.356;10.704;2022-09-21T08:19:48;9.80;99.90
13742;DHT22;8461;52.356;10.704;2022-09-21T08:22:14;9.90;99.90
13742;DHT22;8461;52.356;10.704;2022-09-21T08:24:40;9.80;99.90
13742;DHT22;8461;52.356;10.704;2022-09-21T08:27:07;10.00;99.90
13742;DHT22;8461;52.356;10.704;2022-09-21T08:29:33;10.10;99.90
13742;DHT22;8461;52.356;10.704;2022-09-21T08:32:00;10.00;99.90
13742;DHT22;8461;52.356;10.704;2022-09-21T08:34:26;10.20;99.90
13742;DHT22;8461;52.356;10.704;2022-09-21T08:36:52;10.30;99.90
13742;DHT22;8461;52.356;10.704;2022-09-21T08:39:17;10.40;99.90
13742;DHT22;8461;52.356;10.704;2022-09-21T08:45:05;10.40;99.90
13742;DHT22;8461;52.356;10.704;2022-09-21T08:47:49;10.30;99.90
13742;DHT22;8461;52.356;10.704;2022-09-21T08:53:07;10.40;99.90
13742;DHT22;8461;52.356;10.704;2022-09-21T08:55:35;10.50;99.90
13742;DHT22;8461;52.356;10.704;2022-09-21T08:58:00;10.60;99.90
13742;DHT22;8461;52.356;10.704;2022-09-21T09:00:28;10.60;99.90
13742;DHT22;8461;52.356;10.704;2022-09-21T09:03:15;10.70;99.90
13742;DHT22;8461;52.356;10.704;2022-09-21T09:06:00;10.80;99.90
13742;DHT22;8461;52.356;10.704;2022-09-21T09:08:46;10.80;99.90
13742;DHT22;8461;52.356;10.704;2022-09-21T09:11:43;10.90;99.90
13742;DHT22;8461;52.356;10.704;2022-09-21T09:14:30;11.00;99.90
13742;DHT22;8461;52.356;10.704;2022-09-21T09:19:57;11.20;99.90
13742;DHT22;8461;52.356;10.704;2022-09-21T09:22:33;11.30;99.90
13742;DHT22;8461;52.356;10.704;2022-09-21T09:25:03;11.40;99.90
13742;DHT22;8461;52.356;10.704;2022-09-21T09:27:36;11.50;99.90
13742;DHT22;8461;52.356;10.704;2022-09-21T09:30:15;11.60;99.90
13742;DHT22;8461;52.356;10.704;2022-09-21T09:38:01;11.70;99.90
13742;DHT22;8461;52.356;10.704;2022-09-21T09:40:55;11.70;99.90
13742;DHT22;8461;52.356;10.704;2022-09-21T09:43:26;11.80;99.90
13742;DHT22;8461;52.356;10.704;2022-09-21T09:49:13;12.10;99.90
13742;DHT22;8461;52.356;10.704;2022-09-21T09:51:41;12.30;99.90
13742;DHT22;8461;52.356;10.704;2022-09-21T09:54:14;12.30;99.90
13742;DHT22;8461;52.356;10.704;2022-09-21T09:56:40;12.30;99.90
13742;DHT22;8461;52.356;10.704;2022-09-21T09:59:12;12.50;99.90
13742;DHT22;8461;52.356;10.704;2022-09-21T10:01:43;12.60;99.90
13742;DHT22;8461;52.356;10.704;2022-09-21T10:04:13;12.70;99.90
13742;DHT22;8461;52.356;10.704;2022-09-21T10:06:39;12.70;99.90
13742;DHT22;8461;52.356;10.704;2022-09-21T10:11:43;12.80;99.90
13742;DHT22;8461;52.356;10.704;2022-09-21T10:14:11;12.80;99.90
13742;DHT22;8461;52.356;10.704;2022-09-21T10:16:40;12.90;99.90
13742;DHT22;8461;52.356;10.704;2022-09-21T10:19:17;13.00;99.90
13742;DHT22;8461;52.356;10.704;2022-09-21T10:21:44;13.00;99.90
13742;DHT22;8461;52.356;10.704;2022-09-21T10:24:17;13.20;99.90
13742;DHT22;8461;52.356;10.704;2022-09-21T10:26:48;13.30;99.90
13742;DHT22;8461;52.356;10.704;2022-09-21T10:34:39;13.40;99.90
13742;DHT22;8461;52.356;10.704;2022-09-21T10:39:53;13.50;99.90
13742;DHT22;8461;52.356;10.704;2022-09-21T10:42:20;13.50;99.90
13742;DHT22;8461;52.356;10.704;2022-09-21T10:44:50;13.60;99.90
13742;DHT22;8461;52.356;10.704;2022-09-21T10:47:38;13.70;99.90
13742;DHT22;8461;52.356;10.704;2022-09-21T10:50:29;13.70;99.90
13742;DHT22;8461;52.356;10.704;2022-09-21T10:53:29;13.80;99.90
13742;DHT22;8461;52.356;10.704;2022-09-21T10:56:13;13.80;99.90
13742;DHT22;8461;52.356;10.704;2022-09-21T10:59:10;13.80;99.90
13742;DHT22;8461;52.356;10.704;2022-09-21T11:01:43;14.00;99.90
13742;DHT22;8461;52.356;10.704;2022-09-21T11:07:06;14.10;99.90
13742;DHT22;8461;52.356;10.704;2022-09-21T11:09:45;14.20;99.90
13742;DHT22;8461;52.356;10.704;2022-09-21T11:12:40;14.30;99.90
13742;DHT22;8461;52.356;10.704;2022-09-21T11:25:59;14.30;99.90
13742;DHT22;8461;52.356;10.704;2022-09-21T11:28:49;14.10;99.90
13742;DHT22;8461;52.356;10.704;2022-09-21T11:31:23;14.30;99.90
13742;DHT22;8461;52.356;10.704;2022-09-21T11:34:05;14.50;99.90
13742;DHT22;8461;52.356;10.704;2022-09-21T11:36:54;14.70;99.90
13742;DHT22;8461;52.356;10.704;2022-09-21T11:40:01;14.90;99.90
13742;DHT22;8461;52.356;10.704;2022-09-21T11:50:57;15.20;99.90
13742;DHT22;8461;52.356;10.704;2022-09-21T11:54:02;15.30;99.90
13742;DHT22;8461;52.356;10.704;2022-09-21T11:59:58;15.30;99.90
13742;DHT22;8461;52.356;10.704;2022-09-21T12:11:01;15.70;99.90
13742;DHT22;8461;52.356;10.704;2022-09-21T12:13:53;15.80;99.90
13742;DHT22;8461;52.356;10.704;2022-09-21T12:19:21;16.10;99.90
13742;DHT22;8461;52.356;10.704;2022-09-21T12:21:57;16.00;99.90
13742;DHT22;8461;52.356;10.704;2022-09-21T12:24:32;15.80;99.90
13742;DHT22;8461;52.356;10.704;2022-09-21T12:27:04;15.50;99.90
13742;DHT22;8461;52.356;10.704;2022-09-21T12:29:40;15.30;99.90
13742;DHT22;8461;52.356;10.704;2022-09-21T12:35:03;14.90;99.90
13742;DHT22;8461;52.356;10.704;2022-09-21T12:37:37;14.80;99.90
13742;DHT22;8461;52.356;10.704;2022-09-21T12:42:44;15.20;99.90
13742;DHT22;8461;52.356;10.704;2022-09-21T12:45:18;15.40;99.90
13742;DHT22;8461;52.356;10.704;2022-09-21T12:48:07;15.50;99.90
13742;DHT22;8461;52.356;10.704;2022-09-21T12:53:10;15.80;99.90
13742;DHT22;8461;52.356;10.704;2022-09-21T12:58:47;16.00;99.90
13742;DHT22;8461;52.356;10.704;2022-09-21T13:09:55;16.00;99.90
13742;DHT22;8461;52.356;10.704;2022-09-21T13:12:25;16.20;99.90
13742;DHT22;8461;52.356;10.704;2022-09-21T13:15:02;16.30;99.90
13742;DHT22;8461;52.356;10.704;2022-09-21T13:17:30;16.20;99.90
13742;DHT22;8461;52.356;10.704;2022-09-21T13:20:02;16.10;99.90
13742;DHT22;8461;52.356;10.704;2022-09-21T13:22:33;16.00;99.90
13742;DHT22;8461;52.356;10.704;2022-09-21T13:28:05;16.00;99.90
13742;DHT22;8461;52.356;10.704;2022-09-21T13:30:40;16.00;99.90
13742;DHT22;8461;52.356;10.704;2022-09-21T13:33:30;15.80;99.90
13742;DHT22;8461;52.356;10.704;2022-09-21T13:51:31;15.70;99.90
13742;DHT22;8461;52.356;10.704;2022-09-21T13:54:00;15.60;99.90
13742;DHT22;8461;52.356;10.704;2022-09-21T13:56:27;15.70;99.90
13742;DHT22;8461;52.356;10.704;2022-09-21T13:58:55;15.70;99.90
13742;DHT22;8461;52.356;10.704;2022-09-21T14:01:28;15.70;99.90
13742;DHT22;8461;52.356;10.704;2022-09-21T14:04:04;15.70;99.90
13742;DHT22;8461;52.356;10.704;2022-09-21T14:06:43;15.70;99.90
13742;DHT22;8461;52.356;10.704;2022-09-21T14:09:25;15.80;99.90
13742;DHT22;8461;52.356;10.704;2022-09-21T14:12:01;15.80;99.90
13742;DHT22;8461;52.356;10.704;2022-09-21T14:14:33;15.90;99.90
13742;DHT22;8461;52.356;10.704;2022-09-21T14:17:03;15.80;99.90
13742;DHT22;8461;52.356;10.704;2022-09-21T14:27:31;15.90;99.90
13742;DHT22;8461;52.356;10.704;2022-09-21T14:32:44;15.90;99.90
13742;DHT22;8461;52.356;10.704;2022-09-21T14:35:20;15.80;99.90
13742;DHT22;8461;52.356;10.704;2022-09-21T14:37:56;15.80;99.90
13742;DHT22;8461;52.356;10.704;2022-09-21T14:40:33;15.80;99.90
13742;DHT22;8461;52.356;10.704;2022-09-21T14:43:09;15.80;99.90
13742;DHT22;8461;52.356;10.704;2022-09-21T14:48:58;15.90;99.90
13742;DHT22;8461;52.356;10.704;2022-09-21T14:54:21;16.10;99.90
13742;DHT22;8461;52.356;10.704;2022-09-21T14:59:44;16.20;99.90
13742;DHT22;8461;52.356;10.704;2022-09-21T15:02:24;16.30;99.90
13742;DHT22;8461;52.356;10.704;2022-09-21T15:05:11;16.30;99.90
13742;DHT22;8461;52.356;10.704;2022-09-21T15:08:06;16.40;99.90
13742;DHT22;8461;52.356;10.704;2022-09-21T15:11:21;16.40;99.90
13742;DHT22;8461;52.356;10.704;2022-09-21T15:14:03;16.40;99.90
13742;DHT22;8461;52.356;10.704;2022-09-21T15:16:39;16.40;99.90
13742;DHT22;8461;52.356;10.704;2022-09-21T15:21:47;16.50;99.90
13742;DHT22;8461;52.356;10.704;2022-09-21T15:24:29;16.40;99.90
13742;DHT22;8461;52.356;10.704;2022-09-21T15:27:10;16.40;99.90
13742;DHT22;8461;52.356;10.704;2022-09-21T15:29:37;16.30;99.90
13742;DHT22;8461;52.356;10.704;2022-09-21T15:32:04;16.30;99.90
13742;DHT22;8461;52.356;10.704;2022-09-21T15:34:30;16.20;99.90
13742;DHT22;8461;52.356;10.704;2022-09-21T15:37:11;16.20;99.90
13742;DHT22;8461;52.356;10.704;2022-09-21T15:39:39;16.20;99.90
13742;DHT22;8461;52.356;10.704;2022-09-21T15:44:34;16.10;99.90
13742;DHT22;8461;52.356;10.704;2022-09-21T15:47:05;16.10;99.90
13742;DHT22;8461;52.356;10.704;2022-09-21T15:49:33;16.00;99.90
13742;DHT22;8461;52.356;10.704;2022-09-21T15:52:04;16.00;99.90
13742;DHT22;8461;52.356;10.704;2022-09-21T15:54:52;16.00;99.90
13742;DHT22;8461;52.356;10.704;2022-09-21T15:57:38;15.90;99.90
13742;DHT22;8461;52.356;10.704;2022-09-21T16:00:17;15.90;99.90
13742;DHT22;8461;52.356;10.704;2022-09-21T16:03:06;15.90;99.90
13742;DHT22;8461;52.356;10.704;2022-09-21T16:05:52;15.90;99.90
13742;DHT22;8461;52.356;10.704;2022-09-21T16:08:35;15.80;99.90
13742;DHT22;8461;52.356;10.704;2022-09-21T16:13:39;15.60;99.90
13742;DHT22;8461;52.356;10.704;2022-09-21T16:16:23;15.70;99.90
13742;DHT22;8461;52.356;10.704;2022-09-21T16:18:53;15.60;99.90
13742;DHT22;8461;52.356;10.704;2022-09-21T16:21:30;15.60;99.90
13742;DHT22;8461;52.356;10.704;2022-09-21T16:24:17;15.60;99.90
13742;DHT22;8461;52.356;10.704;2022-09-21T16:26:56;15.60;99.90
13742;DHT22;8461;52.356;10.704;2022-09-21T16:29:46;15.60;99.90
13742;DHT22;8461;52.356;10.704;2022-09-21T16:34:49;15.50;99.90
13742;DHT22;8461;52.356;10.704;2022-09-21T16:39:45;15.60;99.90
13742;DHT22;8461;52.356;10.704;2022-09-21T16:42:10;15.60;99.90
13742;DHT22;8461;52.356;10.704;2022-09-21T16:44:36;15.50;99.90
13742;DHT22;8461;52.356;10.704;2022-09-21T16:47:23;15.50;99.90
13742;DHT22;8461;52.356;10.704;2022-09-21T16:49:53;15.50;99.90
13742;DHT22;8461;52.356;10.704;2022-09-21T16:52:23;15.40;99.90
13742;DHT22;8461;52.356;10.704;2022-09-21T16:54:49;15.40;99.90
13742;DHT22;8461;52.356;10.704;2022-09-21T16:57:15;15.40;99.90
13742;DHT22;8461;52.356;10.704;2022-09-21T16:59:41;15.40;99.90
13742;DHT22;8461;52.356;10.704;2022-09-21T17:02:09;15.30;99.90
13742;DHT22;8461;52.356;10.704;2022-09-21T17:04:36;15.30;99.90
13742;DHT22;8461;52.356;10.704;2022-09-21T17:07:03;15.20;99.90
13742;DHT22;8461;52.356;10.704;2022-09-21T17:09:30;15.20;99.90
13742;DHT22;8461;52.356;10.704;2022-09-21T17:12:00;15.20;99.90
13742;DHT22;8461;52.356;10.704;2022-09-21T17:14:29;15.20;99.90
13742;DHT22;8461;52.356;10.704;2022-09-21T17:17:23;15.10;99.90
13742;DHT22;8461;52.356;10.704;2022-09-21T17:19:51;15.00;99.90
13742;DHT22;8461;52.356;10.704;2022-09-21T17:22:17;15.00;99.90
13742;DHT22;8461;52.356;10.704;2022-09-21T17:24:44;14.90;99.90
13742;DHT22;8461;52.356;10.704;2022-09-21T17:27:13;14.90;99.90
13742;DHT22;8461;52.356;10.704;2022-09-21T17:29:42;14.90;99.90
13742;DHT22;8461;52.356;10.704;2022-09-21T17:32:13;14.80;99.90
13742;DHT22;8461;52.356;10.704;2022-09-21T17:34:40;14.70;99.90
13742;DHT22;8461;52.356;10.704;2022-09-21T17:37:07;14.70;99.90
13742;DHT22;8461;52.356;10.704;2022-09-21T17:39:34;14.60;99.90
13742;DHT22;8461;52.356;10.704;2022-09-21T17:42:18;14.60;99.90
13742;DHT22;8461;52.356;10.704;2022-09-21T17:45:13;14.50;99.90
13742;DHT22;8461;52.356;10.704;2022-09-21T17:47:41;14.40;99.90
13742;DHT22;8461;52.356;10.704;2022-09-21T17:50:22;14.30;99.90
13742;DHT22;8461;52.356;10.704;2022-09-21T17:52:48;14.30;99.90
13742;DHT22;8461;52.356;10.704;2022-09-21T17:55:33;14.20;99.90
13742;DHT22;8461;52.356;10.704;2022-09-21T18:01:21;14.10;99.90
13742;DHT22;8461;52.356;10.704;2022-09-21T18:03:47;14.10;99.90
13742;DHT22;8461;52.356;10.704;2022-09-21T18:06:13;14.10;99.90
13742;DHT22;8461;52.356;10.704;2022-09-21T18:08:39;14.00;99.90
13742;DHT22;8461;52.356;10.704;2022-09-21T18:19:48;13.80;99.90
13742;DHT22;8461;52.356;10.704;2022-09-21T18:24:54;13.60;99.90
13742;DHT22;8461;52.356;10.704;2022-09-21T18:27:21;13.50;99.90
13742;DHT22;8461;52.356;10.704;2022-09-21T18:29:48;13.40;99.90
13742;DHT22;8461;52.356;10.704;2022-09-21T18:32:32;13.40;99.90
13742;DHT22;8461;52.356;10.704;2022-09-21T18:43:26;13.20;99.90
13742;DHT22;8461;52.356;10.704;2022-09-21T18:46:05;13.10;99.90
13742;DHT22;8461;52.356;10.704;2022-09-21T18:54:40;12.90;99.90
13742;DHT22;8461;52.356;10.704;2022-09-21T18:57:11;12.90;99.90
13742;DHT22;8461;52.356;10.704;2022-09-21T18:59:38;12.90;99.90
13742;DHT22;8461;52.356;10.704;2022-09-21T19:02:13;12.80;99.90
13742;DHT22;8461;52.356;10.704;2022-09-21T19:04:41;12.80;99.90
13742;DHT22;8461;52.356;10.704;2022-09-21T19:07:30;12.70;99.90
13742;DHT22;8461;52.356;10.704;2022-09-21T19:10:17;12.70;99.90
13742;DHT22;8461;52.356;10.704;2022-09-21T19:29:14;12.30;99.90
13742;DHT22;8461;52.356;10.704;2022-09-21T19:31:43;12.30;99.90
13742;DHT22;8461;52.356;10.704;2022-09-21T19:34:16;12.20;99.90
13742;DHT22;8461;52.356;10.704;2022-09-21T19:36:44;12.20;99.90
13742;DHT22;8461;52.356;10.704;2022-09-21T19:39:11;12.20;99.90
13742;DHT22;8461;52.356;10.704;2022-09-21T19:42:11;12.10;99.90
13742;DHT22;8461;52.356;10.704;2022-09-21T19:44:59;12.10;99.90
13742;DHT22;8461;52.356;10.704;2022-09-21T19:47:30;12.10;99.90
13742;DHT22;8461;52.356;10.704;2022-09-21T19:50:11;12.00;99.90
13742;DHT22;8461;52.356;10.704;2022-09-21T19:52:40;12.00;99.90